createdAt,value
2018-07-25T00:02:24.697Z,26.70
2018-07-25T00:04:54.911Z,26.60
2018-07-25T00:07:25.344Z,26.60
2018-07-25T00:09:55.588Z,26.60
2018-07-25T00:12:26.419Z,26.50
2018-07-25T00:14:57.226Z,26.50
2018-07-25T00:17:27.501Z,26.40
2018-07-25T00:19:57.742Z,26.40
2018-07-25T00:22:27.961Z,26.40
2018-07-25T00:24:58.227Z,26.30
2018-07-25T00:27:28.441Z,26.30
2018-07-25T00:29:58.711Z,26.30
2018-07-25T00:32:28.900Z,26.20
2018-07-25T00:34:59.185Z,26.20
2018-07-25T00:37:29.428Z,26.20
2018-07-25T00:39:59.748Z,26.20
2018-07-25T00:42:30.068Z,26.10
2018-07-25T00:45:00.401Z,26.10
2018-07-25T00:47:30.534Z,26.00
2018-07-25T00:50:00.768Z,25.90
2018-07-25T00:52:31.039Z,25.90
2018-07-25T00:55:01.322Z,25.80
2018-07-25T01:00:01.325Z,25.70
2018-07-25T01:02:31.541Z,25.70
2018-07-25T01:05:01.822Z,25.60
2018-07-25T01:07:32.081Z,25.50
2018-07-25T01:10:02.359Z,25.50
2018-07-25T01:12:32.541Z,25.50
2018-07-25T01:15:02.904Z,25.50
2018-07-25T01:17:33.202Z,25.50
2018-07-25T01:20:03.499Z,25.40
2018-07-25T01:22:33.658Z,25.40
2018-07-25T01:25:04.442Z,25.30
2018-07-25T01:27:34.781Z,25.30
2018-07-25T01:30:05.579Z,25.30
2018-07-25T01:32:35.827Z,25.20
2018-07-25T01:35:06.181Z,25.20
2018-07-25T01:37:36.401Z,25.10
2018-07-25T01:40:07.105Z,25.10
2018-07-25T01:42:37.356Z,25.00
2018-07-25T01:45:07.784Z,24.90
2018-07-25T01:47:38.079Z,24.90
2018-07-25T01:50:08.677Z,24.90
2018-07-25T01:52:38.897Z,24.80
2018-07-25T01:55:09.633Z,24.80
2018-07-25T01:57:39.825Z,24.80
2018-07-25T02:00:10.162Z,24.70
2018-07-25T02:02:40.441Z,24.70
2018-07-25T02:05:10.690Z,24.60
2018-07-25T02:07:40.941Z,24.60
2018-07-25T02:10:11.199Z,24.50
2018-07-25T02:12:41.459Z,24.50
2018-07-25T02:15:11.739Z,24.50
2018-07-25T02:17:42.025Z,24.40
2018-07-25T02:20:12.346Z,24.40
2018-07-25T02:22:42.577Z,24.40
2018-07-25T02:25:12.841Z,24.30
2018-07-25T02:27:43.122Z,24.30
2018-07-25T02:30:13.386Z,24.20
2018-07-25T02:32:43.678Z,24.20
2018-07-25T02:35:13.943Z,24.20
2018-07-25T02:37:44.278Z,24.10
2018-07-25T02:40:14.549Z,24.10
2018-07-25T02:42:44.819Z,24.00
2018-07-25T02:45:15.049Z,24.00
2018-07-25T02:47:45.322Z,24.00
2018-07-25T02:50:15.620Z,23.90
2018-07-25T02:52:45.922Z,23.90
2018-07-25T02:55:16.181Z,23.80
2018-07-25T02:57:46.462Z,23.80
2018-07-25T03:00:16.843Z,23.80
2018-07-25T03:05:16.967Z,23.70
2018-07-25T03:07:47.284Z,23.70
2018-07-25T03:10:17.499Z,23.70
2018-07-25T03:12:47.786Z,23.70
2018-07-25T03:15:18.044Z,23.60
2018-07-25T03:17:48.300Z,23.70
2018-07-25T03:20:18.521Z,23.60
2018-07-25T03:22:48.721Z,23.60
2018-07-25T03:25:19.036Z,23.60
2018-07-25T03:27:49.386Z,23.50
2018-07-25T03:30:19.603Z,23.50
2018-07-25T03:32:49.863Z,23.50
2018-07-25T03:35:20.123Z,23.50
2018-07-25T03:37:50.379Z,23.50
2018-07-25T03:42:50.378Z,23.40
2018-07-25T03:45:20.613Z,23.40
2018-07-25T03:47:50.860Z,23.40
2018-07-25T03:50:21.163Z,23.40
2018-07-25T03:52:51.369Z,23.30
2018-07-25T03:55:21.626Z,23.30
2018-07-25T03:57:51.922Z,23.30
2018-07-25T04:00:22.178Z,23.30
2018-07-25T04:02:52.400Z,23.30
2018-07-25T04:05:22.717Z,23.30
2018-07-25T04:07:52.982Z,23.20
2018-07-25T04:10:23.314Z,23.20
2018-07-25T04:12:53.697Z,23.20
2018-07-25T04:17:53.754Z,23.10
2018-07-25T04:20:23.982Z,23.10
2018-07-25T04:22:54.258Z,23.10
2018-07-25T04:25:24.501Z,23.10
2018-07-25T04:27:54.884Z,23.10
2018-07-25T04:30:25.125Z,23.00
2018-07-25T04:32:55.423Z,23.00
2018-07-25T04:35:25.807Z,23.00
2018-07-25T04:37:56.101Z,23.00
2018-07-25T04:40:26.497Z,23.00
2018-07-25T04:42:56.844Z,23.00
2018-07-25T04:45:27.161Z,23.00
2018-07-25T04:47:57.420Z,23.00
2018-07-25T04:50:27.647Z,23.00
2018-07-25T04:52:58.029Z,23.00
2018-07-25T04:55:28.317Z,23.00
2018-07-25T04:58:06.930Z,23.00
2018-07-25T05:00:37.142Z,23.00
2018-07-25T05:03:07.475Z,23.00
2018-07-25T05:05:37.686Z,23.00
2018-07-25T05:08:07.965Z,23.00
2018-07-25T05:10:38.181Z,23.10
2018-07-25T05:13:08.595Z,23.10
2018-07-25T05:15:38.859Z,23.10
2018-07-25T05:18:09.143Z,23.20
2018-07-25T05:20:39.500Z,23.20
2018-07-25T05:23:09.814Z,23.30
2018-07-25T05:25:40.069Z,23.30
2018-07-25T05:28:10.338Z,23.30
2018-07-25T05:30:40.663Z,23.40
2018-07-25T05:33:10.940Z,23.40
2018-07-25T05:35:41.184Z,23.40
2018-07-25T05:38:11.501Z,23.40
2018-07-25T05:40:41.784Z,23.50
2018-07-25T05:43:12.281Z,23.50
2018-07-25T05:45:42.481Z,23.50
2018-07-25T05:48:12.765Z,23.50
2018-07-25T05:50:43.121Z,23.60
2018-07-25T05:55:43.179Z,23.70
2018-07-25T05:58:13.498Z,23.80
2018-07-25T06:00:43.759Z,23.90
2018-07-25T06:03:14.083Z,24.10
2018-07-25T06:05:44.477Z,24.20
2018-07-25T06:08:14.871Z,24.40
2018-07-25T06:10:45.327Z,24.50
2018-07-25T06:13:15.674Z,24.70
2018-07-25T06:15:46.130Z,24.80
2018-07-25T06:18:16.385Z,25.00
2018-07-25T06:20:46.906Z,25.20
2018-07-25T06:26:10.565Z,25.40
2018-07-25T06:28:40.945Z,25.60
2018-07-25T06:31:11.379Z,25.70
2018-07-25T06:33:41.729Z,25.90
2018-07-25T06:36:12.091Z,26.00
2018-07-25T06:38:42.636Z,26.10
2018-07-25T06:41:17.417Z,26.20
2018-07-25T06:43:47.950Z,26.30
2018-07-25T06:46:18.486Z,26.50
2018-07-25T06:48:48.924Z,26.50
2018-07-25T06:51:19.397Z,26.60
2018-07-25T06:54:04.115Z,26.70
2018-07-25T06:56:34.412Z,26.80
2018-07-25T06:59:04.868Z,26.90
2018-07-25T07:01:35.321Z,27.00
2018-07-25T07:04:05.895Z,27.10
2018-07-25T07:06:36.315Z,27.30
2018-07-25T07:09:10.023Z,27.40
2018-07-25T07:11:40.442Z,27.40
2018-07-25T07:14:10.973Z,27.60
2018-07-25T07:16:41.330Z,27.70
2018-07-25T07:19:11.771Z,27.90
2018-07-25T07:21:42.162Z,28.00
2018-07-25T07:24:12.622Z,28.00
2018-07-25T07:26:43.009Z,28.20
2018-07-25T07:29:13.287Z,28.30
2018-07-25T07:31:43.676Z,28.40
2018-07-25T07:34:14.047Z,28.50
2018-07-25T07:36:44.361Z,28.60
2018-07-25T07:39:15.022Z,28.70
2018-07-25T07:41:45.419Z,28.70
2018-07-25T07:44:15.830Z,28.90
2018-07-25T07:46:46.221Z,28.90
2018-07-25T07:49:16.584Z,29.10
2018-07-25T07:51:46.898Z,29.10
2018-07-25T07:54:17.241Z,29.20
2018-07-25T07:56:47.613Z,29.30
2018-07-25T07:59:17.969Z,29.40
2018-07-25T08:01:48.379Z,29.50
2018-07-25T08:04:18.720Z,29.70
2018-07-25T08:06:49.131Z,29.70
2018-07-25T08:09:19.542Z,29.80
2018-07-25T08:11:49.836Z,29.90
2018-07-25T08:14:20.088Z,30.00
2018-07-25T08:16:50.418Z,30.10
2018-07-25T08:19:20.734Z,30.10
2018-07-25T08:21:52.928Z,30.20
2018-07-25T08:24:23.285Z,30.30
2018-07-25T08:26:53.641Z,30.30
2018-07-25T08:29:24.082Z,30.40
2018-07-25T08:31:54.328Z,30.50
2018-07-25T08:34:24.959Z,30.60
2018-07-25T08:36:55.422Z,30.70
2018-07-25T08:41:55.885Z,30.80
2018-07-25T08:46:56.318Z,31.00
2018-07-25T08:49:26.761Z,31.10
2018-07-25T08:51:57.113Z,31.20
2018-07-25T08:54:27.514Z,31.30
2018-07-25T08:56:57.903Z,31.40
2018-07-25T08:59:28.359Z,31.50
2018-07-25T09:01:58.761Z,31.60
2018-07-25T09:04:29.052Z,31.70
2018-07-25T09:06:59.403Z,31.80
2018-07-25T09:09:29.759Z,31.90
2018-07-25T09:12:00.155Z,32.00
2018-07-25T09:14:30.524Z,32.10
2018-07-25T09:17:00.904Z,32.20
2018-07-25T09:19:31.286Z,32.20
2018-07-25T09:22:02.153Z,32.40
2018-07-25T09:24:32.717Z,32.40
2018-07-25T09:27:03.060Z,32.50
2018-07-25T09:29:33.526Z,32.60
2018-07-25T09:32:03.987Z,32.70
2018-07-25T09:34:34.334Z,32.80
2018-07-25T09:37:04.725Z,32.80
2018-07-25T09:39:35.164Z,32.90
2018-07-25T09:42:05.567Z,32.90
2018-07-25T09:44:36.179Z,33.00
2018-07-25T09:47:06.792Z,33.10
2018-07-25T09:49:37.182Z,33.20
2018-07-25T09:52:07.815Z,33.20
2018-07-25T09:54:38.296Z,33.30
2018-07-25T09:57:08.874Z,33.30
2018-07-25T10:02:09.461Z,33.30
2018-07-25T10:04:39.965Z,33.30
2018-07-25T10:07:10.526Z,33.50
2018-07-25T10:09:40.949Z,33.60
2018-07-25T10:12:11.470Z,33.70
2018-07-25T10:14:41.912Z,33.80
2018-07-25T10:17:12.339Z,33.90
2018-07-25T10:19:42.914Z,34.00
2018-07-25T10:22:13.489Z,34.10
2018-07-25T10:24:43.928Z,34.10
2018-07-25T10:27:14.436Z,34.20
2018-07-25T10:29:44.896Z,34.20
2018-07-25T10:32:15.268Z,34.30
2018-07-25T10:34:45.661Z,34.30
2018-07-25T10:37:16.177Z,34.40
2018-07-25T10:39:46.661Z,34.50
2018-07-25T10:42:17.040Z,34.60
2018-07-25T10:44:47.522Z,34.60
2018-07-25T10:47:18.377Z,34.60
2018-07-25T10:49:48.988Z,34.70
2018-07-25T10:52:19.498Z,34.80
2018-07-25T10:54:49.942Z,34.90
2018-07-25T10:57:20.448Z,35.00
2018-07-25T10:59:50.882Z,35.10
2018-07-25T11:02:21.325Z,35.20
2018-07-25T11:04:51.888Z,35.30
2018-07-25T11:07:22.389Z,35.30
2018-07-25T11:09:52.853Z,35.30
2018-07-25T11:12:23.383Z,35.40
2018-07-25T11:14:53.879Z,35.40
2018-07-25T11:17:24.391Z,35.40
2018-07-25T11:19:54.837Z,35.40
2018-07-25T11:22:25.309Z,35.50
2018-07-25T11:24:55.824Z,35.60
2018-07-25T11:27:26.222Z,35.70
2018-07-25T11:29:56.782Z,35.80
2018-07-25T11:32:27.231Z,35.80
2018-07-25T11:34:57.701Z,35.90
2018-07-25T11:37:28.212Z,36.00
2018-07-25T11:39:58.608Z,36.00
2018-07-25T11:42:29.009Z,36.10
2018-07-25T11:44:59.522Z,36.10
2018-07-25T11:47:30.081Z,36.20
2018-07-25T11:50:00.533Z,36.30
2018-07-25T11:52:31.061Z,36.40
2018-07-25T11:55:01.652Z,36.50
2018-07-25T11:57:32.068Z,36.50
2018-07-25T12:00:02.527Z,36.60
2018-07-25T12:02:33.027Z,36.70
2018-07-25T12:05:03.504Z,36.70
2018-07-25T12:07:33.983Z,36.80
2018-07-25T12:10:04.600Z,36.80
2018-07-25T12:12:35.960Z,36.80
2018-07-25T12:15:08.454Z,36.90
2018-07-25T12:17:39.363Z,37.00
2018-07-25T12:20:09.791Z,37.00
2018-07-25T12:22:40.209Z,37.10
2018-07-25T12:25:10.721Z,37.10
2018-07-25T12:27:41.205Z,37.10
2018-07-25T12:30:11.688Z,37.10
2018-07-25T12:32:42.161Z,37.10
2018-07-25T12:35:12.639Z,37.10
2018-07-25T12:40:13.275Z,37.20
2018-07-25T12:42:43.890Z,37.20
2018-07-25T12:45:14.837Z,37.20
2018-07-25T12:47:45.298Z,37.30
2018-07-25T12:50:15.742Z,37.30
2018-07-25T12:52:46.136Z,37.30
2018-07-25T12:55:16.536Z,37.40
2018-07-25T12:57:47.102Z,37.30
2018-07-25T13:00:17.782Z,37.20
2018-07-25T13:02:48.386Z,37.10
2018-07-25T13:05:18.824Z,37.00
2018-07-25T13:07:49.330Z,37.00
2018-07-25T13:10:19.704Z,37.00
2018-07-25T13:12:50.281Z,36.90
2018-07-25T13:17:50.580Z,36.80
2018-07-25T13:20:21.057Z,36.80
2018-07-25T13:22:51.606Z,36.80
2018-07-25T13:25:22.068Z,36.80
2018-07-25T13:27:52.596Z,36.80
2018-07-25T13:30:23.102Z,36.80
2018-07-25T13:32:53.617Z,36.90
2018-07-25T13:35:24.088Z,36.90
2018-07-25T13:37:54.525Z,36.90
2018-07-25T13:40:25.011Z,36.90
2018-07-25T13:43:02.065Z,36.90
2018-07-25T13:45:32.607Z,36.90
2018-07-25T13:48:03.188Z,36.90
2018-07-25T13:50:33.632Z,37.00
2018-07-25T13:53:04.276Z,37.00
2018-07-25T13:55:34.722Z,37.10
2018-07-25T13:58:05.097Z,37.10
2018-07-25T14:00:35.485Z,37.20
2018-07-25T14:03:06.126Z,37.20
2018-07-25T14:05:36.507Z,37.20
2018-07-25T14:08:07.290Z,37.20
2018-07-25T14:10:37.787Z,37.20
2018-07-25T14:13:08.243Z,37.30
2018-07-25T14:15:38.783Z,37.30
2018-07-25T14:18:09.232Z,37.40
2018-07-25T14:20:39.754Z,37.50
2018-07-25T14:23:10.197Z,37.50
2018-07-25T14:25:40.684Z,37.50
2018-07-25T14:28:11.286Z,37.40
2018-07-25T14:30:41.803Z,37.40
2018-07-25T14:33:12.377Z,37.40
2018-07-25T14:35:42.865Z,37.40
2018-07-25T14:38:13.439Z,37.40
2018-07-25T14:40:43.890Z,37.50
2018-07-25T14:43:14.368Z,37.50
2018-07-25T14:45:44.902Z,37.50
2018-07-25T14:48:15.409Z,37.40
2018-07-25T14:50:45.974Z,37.40
2018-07-25T14:53:16.532Z,37.40
2018-07-25T14:55:47.025Z,37.30
2018-07-25T14:58:17.500Z,37.20
2018-07-25T15:03:17.862Z,37.10
2018-07-25T15:05:48.360Z,37.00
2018-07-25T15:08:18.912Z,37.00
2018-07-25T15:10:49.370Z,36.90
2018-07-25T15:13:19.791Z,36.80
2018-07-25T15:15:50.221Z,36.80
2018-07-25T15:18:20.730Z,36.60
2018-07-25T15:20:51.242Z,36.40
2018-07-25T15:24:08.970Z,36.30
2018-07-25T15:26:39.425Z,36.10
2018-07-25T15:29:09.977Z,35.90
2018-07-25T15:31:40.390Z,35.70
2018-07-25T15:34:10.982Z,35.60
2018-07-25T15:36:49.590Z,35.50
2018-07-25T15:39:21.391Z,35.40
2018-07-25T15:41:52.781Z,35.30
2018-07-25T15:44:24.202Z,35.20
2018-07-25T15:46:54.704Z,35.10
2018-07-25T15:49:25.171Z,35.10
2018-07-25T15:51:55.570Z,35.00
2018-07-25T15:54:26.022Z,35.00
2018-07-25T15:56:56.578Z,34.90
2018-07-25T15:59:27.028Z,34.90
2018-07-25T16:01:57.433Z,34.80
2018-07-25T16:04:27.814Z,34.70
2018-07-25T16:06:58.242Z,34.70
2018-07-25T16:09:28.801Z,34.70
2018-07-25T16:11:59.305Z,34.70
2018-07-25T16:14:29.836Z,34.70
2018-07-25T16:19:30.385Z,34.50
2018-07-25T16:22:00.776Z,34.40
2018-07-25T16:24:31.228Z,34.30
2018-07-25T16:27:01.436Z,34.10
2018-07-25T16:29:31.839Z,34.00
2018-07-25T16:32:02.120Z,33.90
2018-07-25T16:34:32.496Z,33.70
2018-07-25T16:37:02.916Z,33.60
2018-07-25T16:39:33.308Z,33.60
2018-07-25T16:42:03.929Z,33.40
2018-07-25T16:44:34.240Z,33.30
2018-07-25T16:47:04.751Z,33.20
2018-07-25T16:49:35.053Z,33.10
2018-07-25T16:52:05.550Z,33.00
2018-07-25T16:54:36.001Z,32.90
2018-07-25T16:57:06.542Z,32.80
2018-07-25T16:59:36.905Z,32.70
2018-07-25T17:02:07.215Z,32.60
2018-07-25T17:04:37.549Z,32.50
2018-07-25T17:07:08.354Z,32.40
2018-07-25T17:09:38.770Z,32.30
2018-07-25T17:12:09.100Z,32.20
2018-07-25T17:14:39.458Z,32.10
2018-07-25T17:17:09.701Z,32.00
2018-07-25T17:22:09.859Z,31.70
2018-07-25T17:24:40.174Z,31.60
2018-07-25T17:27:10.504Z,31.50
2018-07-25T17:29:40.829Z,31.30
2018-07-25T17:32:11.169Z,31.30
2018-07-25T17:34:41.552Z,31.10
2018-07-25T17:37:11.900Z,31.00
2018-07-25T17:39:42.226Z,30.90
2018-07-25T17:42:12.557Z,30.80
2018-07-25T17:44:42.930Z,30.70
2018-07-25T17:47:13.519Z,30.70
2018-07-25T17:49:43.850Z,30.60
2018-07-25T17:52:14.195Z,30.60
2018-07-25T17:54:44.641Z,30.60
2018-07-25T17:57:15.068Z,30.50
2018-07-25T17:59:45.394Z,30.50
2018-07-25T18:02:15.866Z,30.40
2018-07-25T18:04:46.213Z,30.40
2018-07-25T18:07:16.524Z,30.40
2018-07-25T18:09:46.804Z,30.30
2018-07-25T18:12:17.173Z,30.20
2018-07-25T18:14:47.483Z,30.10
2018-07-25T18:17:17.810Z,30.00
2018-07-25T18:19:48.075Z,30.00
2018-07-25T18:22:18.380Z,29.90
2018-07-25T18:24:48.738Z,29.90
2018-07-25T18:27:19.076Z,29.80
2018-07-25T18:29:49.399Z,29.90
2018-07-25T18:32:19.737Z,29.80
2018-07-25T18:37:19.875Z,29.70
2018-07-25T18:39:50.322Z,29.60
2018-07-25T18:42:20.617Z,29.50
2018-07-25T18:44:50.891Z,29.50
2018-07-25T18:47:21.191Z,29.40
2018-07-25T18:49:51.458Z,29.30
2018-07-25T18:52:21.781Z,29.30
2018-07-25T18:54:52.244Z,29.20
2018-07-25T18:57:22.645Z,29.10
2018-07-25T18:59:52.991Z,29.10
2018-07-25T19:02:23.657Z,28.90
2018-07-25T19:04:54.001Z,28.90
2018-07-25T19:07:24.355Z,28.90
2018-07-25T19:09:54.718Z,28.80
2018-07-25T19:12:25.008Z,28.70
2018-07-25T19:15:00.428Z,28.70
2018-07-25T19:17:30.917Z,28.70
2018-07-25T19:20:01.159Z,28.60
2018-07-25T19:22:33.091Z,28.60
2018-07-25T19:25:04.142Z,28.50
2018-07-25T19:27:34.496Z,28.50
2018-07-25T19:30:04.924Z,28.40
2018-07-25T19:32:35.197Z,28.40
2018-07-25T19:35:05.491Z,28.30
2018-07-25T19:37:35.744Z,28.30
2018-07-25T19:40:06.245Z,28.30
2018-07-25T19:42:36.485Z,28.20
2018-07-25T19:45:07.181Z,28.10
2018-07-25T19:47:38.008Z,28.10
2018-07-25T19:50:08.280Z,28.10
2018-07-25T19:52:38.577Z,28.00
2018-07-25T19:55:08.899Z,28.00
2018-07-25T19:57:39.167Z,28.00
2018-07-25T20:00:16.379Z,28.00
2018-07-25T20:02:39.881Z,27.90
2018-07-25T20:05:10.168Z,27.90
2018-07-25T20:07:40.445Z,27.90
2018-07-25T20:10:10.788Z,27.80
2018-07-25T20:12:41.135Z,27.80
2018-07-25T20:15:16.280Z,27.80
2018-07-25T20:20:17.665Z,27.70
2018-07-25T20:23:09.794Z,27.70
2018-07-25T20:25:40.363Z,27.60
2018-07-25T20:28:10.907Z,27.60
2018-07-25T20:30:41.595Z,27.60
2018-07-25T20:33:12.226Z,27.50
2018-07-25T20:35:43.653Z,27.50
2018-07-25T20:43:15.782Z,27.50
2018-07-25T20:45:46.643Z,27.40
2018-07-25T20:48:17.449Z,27.40
2018-07-25T20:50:48.391Z,27.40
2018-07-25T20:53:19.175Z,27.40
2018-07-25T20:55:50.212Z,27.40
2018-07-25T20:58:21.079Z,27.40
2018-07-25T21:00:51.956Z,27.30
2018-07-25T21:03:22.905Z,27.30
2018-07-25T21:05:53.705Z,27.30
2018-07-25T21:08:24.411Z,27.20
2018-07-25T21:10:55.102Z,27.20
2018-07-25T21:13:25.819Z,27.20
2018-07-25T21:15:56.817Z,27.10
2018-07-25T21:18:27.474Z,27.10
2018-07-25T21:20:58.382Z,27.00
2018-07-25T21:23:29.131Z,27.00
2018-07-25T21:25:59.844Z,26.90
2018-07-25T21:28:30.618Z,26.90
2018-07-25T21:31:01.395Z,26.80
2018-07-25T21:33:32.116Z,26.80
2018-07-25T21:36:02.963Z,26.80
2018-07-25T21:38:37.312Z,26.80
2018-07-25T21:41:07.635Z,26.70
2018-07-25T21:43:38.131Z,26.70
2018-07-25T21:46:08.721Z,26.60
2018-07-25T21:48:39.116Z,26.60
2018-07-25T21:51:09.568Z,26.60
2018-07-25T21:53:40.092Z,26.60
2018-07-25T21:56:10.567Z,26.60
2018-07-25T21:58:40.998Z,26.50
2018-07-25T22:01:15.920Z,26.50
2018-07-25T22:03:46.556Z,26.50
2018-07-25T22:06:17.849Z,26.50
2018-07-25T22:08:48.331Z,26.50
2018-07-25T22:11:18.701Z,26.50
2018-07-25T22:13:54.220Z,26.50
2018-07-25T22:16:25.748Z,26.50
2018-07-25T22:18:56.308Z,26.50
2018-07-25T22:21:26.696Z,26.50
2018-07-25T22:23:57.122Z,26.40
2018-07-25T22:26:27.621Z,26.40
2018-07-25T22:28:58.085Z,26.40
2018-07-25T22:31:28.420Z,26.40
2018-07-25T22:33:58.784Z,26.40
2018-07-25T22:36:29.243Z,26.40
2018-07-25T22:38:59.705Z,26.40
2018-07-25T22:41:30.089Z,26.30
2018-07-25T22:46:30.294Z,26.30
2018-07-25T22:49:01.133Z,26.30
2018-07-25T22:51:31.586Z,26.30
2018-07-25T22:54:02.050Z,26.20
2018-07-25T22:56:32.363Z,26.20
2018-07-25T22:59:02.789Z,26.20
2018-07-25T23:01:33.302Z,26.20
2018-07-25T23:04:04.119Z,26.10
2018-07-25T23:06:34.543Z,26.10
2018-07-25T23:09:07.057Z,26.10
2018-07-25T23:11:37.486Z,26.00
2018-07-25T23:14:07.962Z,26.00
2018-07-25T23:16:38.341Z,26.00
2018-07-25T23:19:08.784Z,25.90
2018-07-25T23:21:39.259Z,25.90
2018-07-25T23:24:09.682Z,25.80
2018-07-25T23:26:39.985Z,25.80
2018-07-25T23:29:10.360Z,25.70
2018-07-25T23:34:10.680Z,25.70
2018-07-25T23:36:41.104Z,25.60
2018-07-25T23:39:12.295Z,25.60
2018-07-25T23:41:42.726Z,25.50
2018-07-25T23:44:13.087Z,25.50
2018-07-25T23:46:43.313Z,25.50
2018-07-25T23:49:13.695Z,25.50
2018-07-25T23:51:43.982Z,25.40
2018-07-25T23:54:14.296Z,25.40
2018-07-25T23:56:44.692Z,25.40
2018-07-25T23:59:14.943Z,25.30
